Weather at Flugplatz Buttwil

Public forecast

Using degrees Celsius for public forecast. Weather courtesy of forecast.io.

Closest aviation weather report (METAR) to Flugplatz Buttwil

Closest report is Emmen Air Base, 10.3 nm (19.2 km) S. Retrieved 2020/12/01 23:20 UTC (0 seconds ago):

LSME 012320Z AUTO 00000KT 4600NDV BR SCT004 BKN017 OVC027 01/00 Q1016 RMK

Closest aviation forecast (TAF) to Flugplatz Buttwil

Forecast is more than 6 hours old.

Closest forecast is Emmen Air Base, 10.3 nm (19.2 km) S. Retrieved 2020/12/01 17:00 UTC (6 hours ago):

TAF LSME 011625Z 0117/0223 VRB02KT 4000 BR FEW013 OVC045 BECMG 0118/0121 BKN007 PROB30 TEMPO 0202/0206 1500 BCFG BECMG 0206/0209 6000 BKN011 BECMG 0211/0214 BKN020 PROB30 0217/0223 3500 -SN BKN014